sensor_id;sensor_type;location;lat;lon;timestamp;P1;durP1;ratioP1;P2;durP2;ratioP2
22026;SDS011;11177;50.966;10.070;2022-12-18T00:01:19;58.40;;;15.23;;
22026;SDS011;11177;50.966;10.070;2022-12-18T00:03:48;50.90;;;15.10;;
22026;SDS011;11177;50.966;10.070;2022-12-18T00:06:15;36.50;;;13.93;;
22026;SDS011;11177;50.966;10.070;2022-12-18T00:08:43;53.88;;;14.35;;
22026;SDS011;11177;50.966;10.070;2022-12-18T00:11:11;33.45;;;14.07;;
22026;SDS011;11177;50.966;10.070;2022-12-18T00:13:40;35.50;;;14.77;;
22026;SDS011;11177;50.966;10.070;2022-12-18T00:16:12;34.55;;;14.73;;
22026;SDS011;11177;50.966;10.070;2022-12-18T00:18:40;43.95;;;14.80;;
22026;SDS011;11177;50.966;10.070;2022-12-18T00:21:08;40.58;;;13.75;;
22026;SDS011;11177;50.966;10.070;2022-12-18T00:23:36;34.00;;;14.77;;
22026;SDS011;11177;50.966;10.070;2022-12-18T00:26:06;41.35;;;14.57;;
22026;SDS011;11177;50.966;10.070;2022-12-18T00:28:33;66.47;;;14.63;;
22026;SDS011;11177;50.966;10.070;2022-12-18T00:31:04;39.63;;;14.80;;
22026;SDS011;11177;50.966;10.070;2022-12-18T00:33:32;48.08;;;15.35;;
22026;SDS011;11177;50.966;10.070;2022-12-18T00:36:10;40.55;;;16.05;;
22026;SDS011;11177;50.966;10.070;2022-12-18T00:38:38;38.17;;;13.98;;
22026;SDS011;11177;50.966;10.070;2022-12-18T00:41:06;44.15;;;14.88;;
22026;SDS011;11177;50.966;10.070;2022-12-18T00:43:34;46.45;;;15.25;;
22026;SDS011;11177;50.966;10.070;2022-12-18T00:46:01;40.65;;;16.25;;
22026;SDS011;11177;50.966;10.070;2022-12-18T00:48:28;40.67;;;14.60;;
22026;SDS011;11177;50.966;10.070;2022-12-18T00:50:55;39.85;;;15.40;;
22026;SDS011;11177;50.966;10.070;2022-12-18T00:53:22;51.75;;;15.65;;
22026;SDS011;11177;50.966;10.070;2022-12-18T00:55:49;38.63;;;14.85;;
22026;SDS011;11177;50.966;10.070;2022-12-18T00:58:16;68.47;;;15.55;;
22026;SDS011;11177;50.966;10.070;2022-12-18T01:00:43;44.00;;;14.80;;
22026;SDS011;11177;50.966;10.070;2022-12-18T01:03:12;48.63;;;15.55;;
22026;SDS011;11177;50.966;10.070;2022-12-18T01:05:40;38.55;;;15.10;;
22026;SDS011;11177;50.966;10.070;2022-12-18T01:08:08;37.85;;;15.57;;
22026;SDS011;11177;50.966;10.070;2022-12-18T01:10:34;40.00;;;15.07;;
22026;SDS011;11177;50.966;10.070;2022-12-18T01:13:01;45.35;;;15.43;;
22026;SDS011;11177;50.966;10.070;2022-12-18T01:15:28;38.13;;;14.68;;
22026;SDS011;11177;50.966;10.070;2022-12-18T01:17:55;69.75;;;15.73;;
22026;SDS011;11177;50.966;10.070;2022-12-18T01:20:21;37.22;;;14.82;;
22026;SDS011;11177;50.966;10.070;2022-12-18T01:22:48;48.92;;;15.30;;
22026;SDS011;11177;50.966;10.070;2022-12-18T01:25:15;36.72;;;14.38;;
22026;SDS011;11177;50.966;10.070;2022-12-18T01:27:42;42.80;;;16.00;;
22026;SDS011;11177;50.966;10.070;2022-12-18T01:30:09;39.13;;;14.02;;
22026;SDS011;11177;50.966;10.070;2022-12-18T01:32:36;36.75;;;14.27;;
22026;SDS011;11177;50.966;10.070;2022-12-18T01:35:03;37.88;;;14.48;;
22026;SDS011;11177;50.966;10.070;2022-12-18T01:37:30;40.90;;;12.93;;
22026;SDS011;11177;50.966;10.070;2022-12-18T01:39:57;33.47;;;14.07;;
22026;SDS011;11177;50.966;10.070;2022-12-18T01:42:24;35.90;;;14.30;;
22026;SDS011;11177;50.966;10.070;2022-12-18T01:47:54;33.20;;;12.68;;
22026;SDS011;11177;50.966;10.070;2022-12-18T01:50:30;36.53;;;12.63;;
22026;SDS011;11177;50.966;10.070;2022-12-18T01:53:10;33.67;;;12.00;;
22026;SDS011;11177;50.966;10.070;2022-12-18T01:55:41;32.13;;;10.57;;
22026;SDS011;11177;50.966;10.070;2022-12-18T01:58:09;32.47;;;10.45;;
22026;SDS011;11177;50.966;10.070;2022-12-18T02:03:17;33.95;;;11.20;;
22026;SDS011;11177;50.966;10.070;2022-12-18T02:05:46;40.45;;;12.27;;
22026;SDS011;11177;50.966;10.070;2022-12-18T02:08:20;33.72;;;11.30;;
22026;SDS011;11177;50.966;10.070;2022-12-18T02:13:46;27.98;;;10.35;;
22026;SDS011;11177;50.966;10.070;2022-12-18T02:19:39;34.40;;;10.90;;
22026;SDS011;11177;50.966;10.070;2022-12-18T02:25:43;38.38;;;12.77;;
22026;SDS011;11177;50.966;10.070;2022-12-18T02:29:00;31.40;;;10.52;;
22026;SDS011;11177;50.966;10.070;2022-12-18T02:31:35;35.83;;;10.98;;
22026;SDS011;11177;50.966;10.070;2022-12-18T02:34:04;33.67;;;10.63;;
22026;SDS011;11177;50.966;10.070;2022-12-18T02:36:33;34.05;;;11.45;;
22026;SDS011;11177;50.966;10.070;2022-12-18T02:39:02;33.08;;;11.90;;
22026;SDS011;11177;50.966;10.070;2022-12-18T02:41:29;32.75;;;11.32;;
22026;SDS011;11177;50.966;10.070;2022-12-18T02:44:00;32.70;;;10.80;;
22026;SDS011;11177;50.966;10.070;2022-12-18T02:46:32;32.50;;;10.60;;
22026;SDS011;11177;50.966;10.070;2022-12-18T02:49:04;33.85;;;11.15;;
22026;SDS011;11177;50.966;10.070;2022-12-18T02:54:50;32.13;;;11.68;;
22026;SDS011;11177;50.966;10.070;2022-12-18T02:57:24;30.20;;;10.27;;
22026;SDS011;11177;50.966;10.070;2022-12-18T03:00:15;37.70;;;11.70;;
22026;SDS011;11177;50.966;10.070;2022-12-18T03:02:48;35.45;;;12.73;;
22026;SDS011;11177;50.966;10.070;2022-12-18T03:05:21;34.58;;;11.55;;
22026;SDS011;11177;50.966;10.070;2022-12-18T03:07:54;34.20;;;11.00;;
22026;SDS011;11177;50.966;10.070;2022-12-18T03:10:25;30.02;;;10.93;;
22026;SDS011;11177;50.966;10.070;2022-12-18T03:13:06;35.92;;;10.52;;
22026;SDS011;11177;50.966;10.070;2022-12-18T03:15:37;28.67;;;10.00;;
22026;SDS011;11177;50.966;10.070;2022-12-18T03:18:10;26.40;;;10.02;;
22026;SDS011;11177;50.966;10.070;2022-12-18T03:20:40;27.30;;;10.32;;
22026;SDS011;11177;50.966;10.070;2022-12-18T03:23:11;22.42;;;8.93;;
22026;SDS011;11177;50.966;10.070;2022-12-18T03:25:40;24.30;;;9.88;;
22026;SDS011;11177;50.966;10.070;2022-12-18T03:28:10;25.50;;;9.77;;
22026;SDS011;11177;50.966;10.070;2022-12-18T03:30:40;25.73;;;9.55;;
22026;SDS011;11177;50.966;10.070;2022-12-18T03:33:10;21.73;;;8.00;;
22026;SDS011;11177;50.966;10.070;2022-12-18T03:35:41;23.17;;;8.00;;
22026;SDS011;11177;50.966;10.070;2022-12-18T03:38:09;26.05;;;8.55;;
22026;SDS011;11177;50.966;10.070;2022-12-18T03:40:45;23.40;;;8.95;;
22026;SDS011;11177;50.966;10.070;2022-12-18T03:43:43;29.67;;;12.00;;
22026;SDS011;11177;50.966;10.070;2022-12-18T03:46:48;24.55;;;9.57;;
22026;SDS011;11177;50.966;10.070;2022-12-18T03:49:27;20.13;;;9.00;;
22026;SDS011;11177;50.966;10.070;2022-12-18T03:52:13;22.75;;;8.30;;
22026;SDS011;11177;50.966;10.070;2022-12-18T03:54:47;31.23;;;10.07;;
22026;SDS011;11177;50.966;10.070;2022-12-18T03:57:16;23.63;;;8.68;;
22026;SDS011;11177;50.966;10.070;2022-12-18T03:59:49;26.67;;;9.30;;
22026;SDS011;11177;50.966;10.070;2022-12-18T04:02:18;42.38;;;11.32;;
22026;SDS011;11177;50.966;10.070;2022-12-18T04:04:46;33.78;;;9.90;;
22026;SDS011;11177;50.966;10.070;2022-12-18T04:07:13;25.60;;;10.15;;
22026;SDS011;11177;50.966;10.070;2022-12-18T04:09:41;31.25;;;9.82;;
22026;SDS011;11177;50.966;10.070;2022-12-18T04:12:08;34.28;;;10.50;;
22026;SDS011;11177;50.966;10.070;2022-12-18T04:14:35;29.98;;;9.80;;
22026;SDS011;11177;50.966;10.070;2022-12-18T04:17:02;27.50;;;9.48;;
22026;SDS011;11177;50.966;10.070;2022-12-18T04:19:30;31.80;;;11.82;;
22026;SDS011;11177;50.966;10.070;2022-12-18T04:21:57;41.05;;;11.65;;
22026;SDS011;11177;50.966;10.070;2022-12-18T04:24:23;39.00;;;11.75;;
22026;SDS011;11177;50.966;10.070;2022-12-18T04:26:50;35.47;;;11.57;;
22026;SDS011;11177;50.966;10.070;2022-12-18T04:29:17;36.65;;;11.73;;
22026;SDS011;11177;50.966;10.070;2022-12-18T04:31:44;38.22;;;12.05;;
22026;SDS011;11177;50.966;10.070;2022-12-18T04:34:11;34.63;;;11.65;;
22026;SDS011;11177;50.966;10.070;2022-12-18T04:36:37;29.83;;;10.70;;
22026;SDS011;11177;50.966;10.070;2022-12-18T04:39:04;37.75;;;12.43;;
22026;SDS011;11177;50.966;10.070;2022-12-18T04:41:31;33.92;;;12.18;;
22026;SDS011;11177;50.966;10.070;2022-12-18T04:43:58;42.63;;;10.98;;
22026;SDS011;11177;50.966;10.070;2022-12-18T04:46:25;36.45;;;9.88;;
22026;SDS011;11177;50.966;10.070;2022-12-18T04:48:51;33.15;;;10.45;;
22026;SDS011;11177;50.966;10.070;2022-12-18T04:51:18;33.80;;;10.40;;
22026;SDS011;11177;50.966;10.070;2022-12-18T04:53:51;36.75;;;11.57;;
22026;SDS011;11177;50.966;10.070;2022-12-18T04:56:19;35.17;;;11.77;;
22026;SDS011;11177;50.966;10.070;2022-12-18T04:58:45;35.35;;;11.10;;
22026;SDS011;11177;50.966;10.070;2022-12-18T05:01:13;31.25;;;10.80;;
22026;SDS011;11177;50.966;10.070;2022-12-18T05:03:41;26.40;;;9.68;;
22026;SDS011;11177;50.966;10.070;2022-12-18T05:06:09;36.58;;;10.60;;
22026;SDS011;11177;50.966;10.070;2022-12-18T05:08:36;33.08;;;11.55;;
22026;SDS011;11177;50.966;10.070;2022-12-18T05:11:06;28.52;;;10.20;;
22026;SDS011;11177;50.966;10.070;2022-12-18T05:13:35;24.15;;;7.65;;
22026;SDS011;11177;50.966;10.070;2022-12-18T05:16:05;25.10;;;9.23;;
22026;SDS011;11177;50.966;10.070;2022-12-18T05:18:32;19.30;;;7.80;;
22026;SDS011;11177;50.966;10.070;2022-12-18T05:20:59;23.10;;;7.70;;
22026;SDS011;11177;50.966;10.070;2022-12-18T05:23:26;22.90;;;8.80;;
22026;SDS011;11177;50.966;10.070;2022-12-18T05:25:54;22.83;;;7.88;;
22026;SDS011;11177;50.966;10.070;2022-12-18T05:28:23;26.52;;;9.15;;
22026;SDS011;11177;50.966;10.070;2022-12-18T05:30:51;28.88;;;9.63;;
22026;SDS011;11177;50.966;10.070;2022-12-18T05:33:19;23.45;;;8.63;;
22026;SDS011;11177;50.966;10.070;2022-12-18T05:35:51;21.60;;;8.40;;
22026;SDS011;11177;50.966;10.070;2022-12-18T05:38:22;24.48;;;7.57;;
22026;SDS011;11177;50.966;10.070;2022-12-18T05:40:49;23.20;;;8.45;;
22026;SDS011;11177;50.966;10.070;2022-12-18T05:43:17;21.65;;;8.68;;
22026;SDS011;11177;50.966;10.070;2022-12-18T05:45:47;20.23;;;8.00;;
22026;SDS011;11177;50.966;10.070;2022-12-18T05:48:14;17.10;;;7.15;;
22026;SDS011;11177;50.966;10.070;2022-12-18T05:50:41;23.25;;;8.55;;
22026;SDS011;11177;50.966;10.070;2022-12-18T05:53:12;17.85;;;8.18;;
22026;SDS011;11177;50.966;10.070;2022-12-18T05:55:40;26.65;;;9.25;;
22026;SDS011;11177;50.966;10.070;2022-12-18T05:58:08;24.42;;;9.13;;
22026;SDS011;11177;50.966;10.070;2022-12-18T06:00:37;25.42;;;8.63;;
22026;SDS011;11177;50.966;10.070;2022-12-18T06:03:07;21.95;;;8.30;;
22026;SDS011;11177;50.966;10.070;2022-12-18T06:05:39;21.33;;;8.30;;
22026;SDS011;11177;50.966;10.070;2022-12-18T06:08:11;24.33;;;8.25;;
22026;SDS011;11177;50.966;10.070;2022-12-18T06:10:38;18.92;;;8.05;;
22026;SDS011;11177;50.966;10.070;2022-12-18T06:13:06;24.02;;;7.93;;
22026;SDS011;11177;50.966;10.070;2022-12-18T06:15:35;22.00;;;8.23;;
22026;SDS011;11177;50.966;10.070;2022-12-18T06:18:03;19.15;;;7.45;;
22026;SDS011;11177;50.966;10.070;2022-12-18T06:20:30;25.42;;;10.73;;
22026;SDS011;11177;50.966;10.070;2022-12-18T06:22:59;20.95;;;7.63;;
22026;SDS011;11177;50.966;10.070;2022-12-18T06:25:26;18.02;;;7.82;;
22026;SDS011;11177;50.966;10.070;2022-12-18T06:27:53;16.83;;;7.10;;
22026;SDS011;11177;50.966;10.070;2022-12-18T06:30:20;18.67;;;7.72;;
22026;SDS011;11177;50.966;10.070;2022-12-18T06:32:50;29.95;;;11.52;;
22026;SDS011;11177;50.966;10.070;2022-12-18T06:35:22;21.30;;;8.05;;
22026;SDS011;11177;50.966;10.070;2022-12-18T06:37:49;20.52;;;8.07;;
22026;SDS011;11177;50.966;10.070;2022-12-18T06:40:16;27.75;;;11.88;;
22026;SDS011;11177;50.966;10.070;2022-12-18T06:42:43;22.70;;;7.80;;
22026;SDS011;11177;50.966;10.070;2022-12-18T06:45:10;19.95;;;7.88;;
22026;SDS011;11177;50.966;10.070;2022-12-18T06:47:37;20.90;;;7.53;;
22026;SDS011;11177;50.966;10.070;2022-12-18T06:50:04;21.45;;;7.60;;
22026;SDS011;11177;50.966;10.070;2022-12-18T06:52:32;19.02;;;7.65;;
22026;SDS011;11177;50.966;10.070;2022-12-18T06:54:59;23.33;;;7.95;;
22026;SDS011;11177;50.966;10.070;2022-12-18T06:57:26;22.77;;;10.07;;
22026;SDS011;11177;50.966;10.070;2022-12-18T06:59:53;19.33;;;8.23;;
22026;SDS011;11177;50.966;10.070;2022-12-18T07:02:20;20.25;;;7.90;;
22026;SDS011;11177;50.966;10.070;2022-12-18T07:04:47;18.65;;;7.47;;
22026;SDS011;11177;50.966;10.070;2022-12-18T07:07:17;22.40;;;7.45;;
22026;SDS011;11177;50.966;10.070;2022-12-18T07:09:43;26.00;;;8.07;;
22026;SDS011;11177;50.966;10.070;2022-12-18T07:12:11;19.77;;;7.93;;
22026;SDS011;11177;50.966;10.070;2022-12-18T07:14:37;20.77;;;8.18;;
22026;SDS011;11177;50.966;10.070;2022-12-18T07:17:04;17.95;;;7.65;;
22026;SDS011;11177;50.966;10.070;2022-12-18T07:19:32;23.40;;;8.23;;
22026;SDS011;11177;50.966;10.070;2022-12-18T07:21:58;21.05;;;7.88;;
22026;SDS011;11177;50.966;10.070;2022-12-18T07:24:26;18.75;;;8.40;;
22026;SDS011;11177;50.966;10.070;2022-12-18T07:26:52;18.13;;;7.57;;
22026;SDS011;11177;50.966;10.070;2022-12-18T07:29:19;26.15;;;10.80;;
22026;SDS011;11177;50.966;10.070;2022-12-18T07:31:46;18.40;;;7.57;;
22026;SDS011;11177;50.966;10.070;2022-12-18T07:34:13;16.55;;;6.80;;
22026;SDS011;11177;50.966;10.070;2022-12-18T07:36:41;14.07;;;6.25;;
22026;SDS011;11177;50.966;10.070;2022-12-18T07:39:10;19.85;;;7.35;;
22026;SDS011;11177;50.966;10.070;2022-12-18T07:41:37;20.85;;;7.95;;
22026;SDS011;11177;50.966;10.070;2022-12-18T07:44:12;21.25;;;8.15;;
22026;SDS011;11177;50.966;10.070;2022-12-18T07:46:39;27.08;;;10.57;;
22026;SDS011;11177;50.966;10.070;2022-12-18T07:49:06;36.85;;;12.25;;
22026;SDS011;11177;50.966;10.070;2022-12-18T07:51:33;40.97;;;13.50;;
22026;SDS011;11177;50.966;10.070;2022-12-18T07:54:00;37.55;;;13.35;;
22026;SDS011;11177;50.966;10.070;2022-12-18T07:56:27;34.20;;;13.60;;
22026;SDS011;11177;50.966;10.070;2022-12-18T07:58:56;29.27;;;11.15;;
22026;SDS011;11177;50.966;10.070;2022-12-18T08:01:23;34.33;;;12.82;;
22026;SDS011;11177;50.966;10.070;2022-12-18T08:03:51;32.88;;;11.82;;
22026;SDS011;11177;50.966;10.070;2022-12-18T08:06:18;29.90;;;11.07;;
22026;SDS011;11177;50.966;10.070;2022-12-18T08:08:50;27.30;;;10.23;;
22026;SDS011;11177;50.966;10.070;2022-12-18T08:11:17;30.20;;;11.93;;
22026;SDS011;11177;50.966;10.070;2022-12-18T08:13:44;34.35;;;12.15;;
22026;SDS011;11177;50.966;10.070;2022-12-18T08:16:11;34.75;;;12.18;;
22026;SDS011;11177;50.966;10.070;2022-12-18T08:18:38;27.98;;;10.23;;
22026;SDS011;11177;50.966;10.070;2022-12-18T08:23:52;25.45;;;10.00;;
22026;SDS011;11177;50.966;10.070;2022-12-18T08:26:19;23.30;;;9.88;;
22026;SDS011;11177;50.966;10.070;2022-12-18T08:28:47;28.48;;;10.48;;
22026;SDS011;11177;50.966;10.070;2022-12-18T08:31:15;24.27;;;9.20;;
22026;SDS011;11177;50.966;10.070;2022-12-18T08:33:42;34.53;;;10.10;;
22026;SDS011;11177;50.966;10.070;2022-12-18T08:36:10;29.48;;;9.98;;
22026;SDS011;11177;50.966;10.070;2022-12-18T08:38:37;23.98;;;9.05;;
22026;SDS011;11177;50.966;10.070;2022-12-18T08:41:05;27.52;;;10.88;;
22026;SDS011;11177;50.966;10.070;2022-12-18T08:43:33;28.92;;;10.75;;
22026;SDS011;11177;50.966;10.070;2022-12-18T08:46:18;27.70;;;11.63;;
22026;SDS011;11177;50.966;10.070;2022-12-18T08:48:46;33.60;;;12.15;;
22026;SDS011;11177;50.966;10.070;2022-12-18T08:51:15;39.20;;;12.52;;
22026;SDS011;11177;50.966;10.070;2022-12-18T08:53:42;33.47;;;13.38;;
22026;SDS011;11177;50.966;10.070;2022-12-18T08:56:10;42.53;;;15.50;;
22026;SDS011;11177;50.966;10.070;2022-12-18T08:58:38;37.92;;;15.15;;
22026;SDS011;11177;50.966;10.070;2022-12-18T09:01:06;28.13;;;10.88;;
22026;SDS011;11177;50.966;10.070;2022-12-18T09:03:35;25.77;;;9.98;;
22026;SDS011;11177;50.966;10.070;2022-12-18T09:06:03;33.17;;;10.60;;
22026;SDS011;11177;50.966;10.070;2022-12-18T09:08:30;33.78;;;10.93;;
22026;SDS011;11177;50.966;10.070;2022-12-18T09:10:57;29.35;;;11.48;;
22026;SDS011;11177;50.966;10.070;2022-12-18T09:13:24;31.88;;;11.88;;
22026;SDS011;11177;50.966;10.070;2022-12-18T09:15:51;27.45;;;12.07;;
22026;SDS011;11177;50.966;10.070;2022-12-18T09:18:19;27.17;;;11.23;;
22026;SDS011;11177;50.966;10.070;2022-12-18T09:20:47;29.48;;;12.27;;
22026;SDS011;11177;50.966;10.070;2022-12-18T09:23:14;29.88;;;12.23;;
22026;SDS011;11177;50.966;10.070;2022-12-18T09:25:41;32.92;;;14.20;;
22026;SDS011;11177;50.966;10.070;2022-12-18T09:28:12;38.00;;;14.35;;
22026;SDS011;11177;50.966;10.070;2022-12-18T09:30:40;31.08;;;12.52;;
22026;SDS011;11177;50.966;10.070;2022-12-18T09:33:09;27.52;;;11.40;;
22026;SDS011;11177;50.966;10.070;2022-12-18T09:35:37;28.23;;;12.05;;
22026;SDS011;11177;50.966;10.070;2022-12-18T09:38:05;32.55;;;12.02;;
22026;SDS011;11177;50.966;10.070;2022-12-18T09:40:34;31.80;;;13.52;;
22026;SDS011;11177;50.966;10.070;2022-12-18T09:43:06;43.80;;;15.85;;
22026;SDS011;11177;50.966;10.070;2022-12-18T09:45:49;50.45;;;18.17;;
22026;SDS011;11177;50.966;10.070;2022-12-18T09:48:29;38.55;;;15.77;;
22026;SDS011;11177;50.966;10.070;2022-12-18T09:50:59;38.65;;;13.45;;
22026;SDS011;11177;50.966;10.070;2022-12-18T09:53:30;38.03;;;15.95;;
22026;SDS011;11177;50.966;10.070;2022-12-18T09:55:59;45.30;;;19.52;;
22026;SDS011;11177;50.966;10.070;2022-12-18T09:58:30;50.35;;;21.15;;
22026;SDS011;11177;50.966;10.070;2022-12-18T10:01:01;41.23;;;16.80;;
22026;SDS011;11177;50.966;10.070;2022-12-18T10:03:28;43.08;;;16.65;;
22026;SDS011;11177;50.966;10.070;2022-12-18T10:06:06;46.25;;;18.23;;
22026;SDS011;11177;50.966;10.070;2022-12-18T10:11:56;42.95;;;18.25;;
22026;SDS011;11177;50.966;10.070;2022-12-18T10:15:19;50.95;;;21.13;;
22026;SDS011;11177;50.966;10.070;2022-12-18T10:20:56;48.00;;;18.70;;
22026;SDS011;11177;50.966;10.070;2022-12-18T10:23:29;50.58;;;19.20;;
22026;SDS011;11177;50.966;10.070;2022-12-18T10:28:32;41.40;;;15.98;;
22026;SDS011;11177;50.966;10.070;2022-12-18T10:31:01;36.22;;;14.57;;
22026;SDS011;11177;50.966;10.070;2022-12-18T10:33:29;38.65;;;15.13;;
22026;SDS011;11177;50.966;10.070;2022-12-18T10:35:58;37.33;;;13.20;;
22026;SDS011;11177;50.966;10.070;2022-12-18T10:38:29;29.17;;;12.07;;
22026;SDS011;11177;50.966;10.070;2022-12-18T10:41:04;24.85;;;11.43;;
22026;SDS011;11177;50.966;10.070;2022-12-18T10:43:33;28.98;;;11.77;;
22026;SDS011;11177;50.966;10.070;2022-12-18T10:48:51;33.95;;;13.73;;
22026;SDS011;11177;50.966;10.070;2022-12-18T10:51:22;77.65;;;25.52;;
22026;SDS011;11177;50.966;10.070;2022-12-18T10:54:03;37.05;;;13.40;;
22026;SDS011;11177;50.966;10.070;2022-12-18T10:56:35;30.30;;;11.63;;
22026;SDS011;11177;50.966;10.070;2022-12-18T10:59:04;25.92;;;11.10;;
22026;SDS011;11177;50.966;10.070;2022-12-18T11:01:52;26.50;;;11.27;;
22026;SDS011;11177;50.966;10.070;2022-12-18T11:04:25;40.53;;;15.35;;
22026;SDS011;11177;50.966;10.070;2022-12-18T11:09:33;33.20;;;13.35;;
22026;SDS011;11177;50.966;10.070;2022-12-18T11:12:02;25.20;;;10.80;;
22026;SDS011;11177;50.966;10.070;2022-12-18T11:14:33;29.75;;;13.80;;
22026;SDS011;11177;50.966;10.070;2022-12-18T11:17:00;31.38;;;12.48;;
22026;SDS011;11177;50.966;10.070;2022-12-18T11:19:54;34.28;;;15.18;;
22026;SDS011;11177;50.966;10.070;2022-12-18T11:22:26;34.08;;;14.50;;
22026;SDS011;11177;50.966;10.070;2022-12-18T11:24:57;33.95;;;15.27;;
22026;SDS011;11177;50.966;10.070;2022-12-18T11:28:29;33.25;;;14.23;;
22026;SDS011;11177;50.966;10.070;2022-12-18T11:33:49;26.25;;;10.98;;
22026;SDS011;11177;50.966;10.070;2022-12-18T11:36:41;26.70;;;11.57;;
22026;SDS011;11177;50.966;10.070;2022-12-18T11:39:11;28.27;;;12.23;;
22026;SDS011;11177;50.966;10.070;2022-12-18T11:41:50;26.42;;;10.68;;
22026;SDS011;11177;50.966;10.070;2022-12-18T11:47:35;30.85;;;10.82;;
22026;SDS011;11177;50.966;10.070;2022-12-18T11:50:30;26.63;;;10.73;;
22026;SDS011;11177;50.966;10.070;2022-12-18T11:53:00;22.85;;;10.15;;
22026;SDS011;11177;50.966;10.070;2022-12-18T12:06:54;41.83;;;14.25;;
22026;SDS011;11177;50.966;10.070;2022-12-18T12:09:56;20.73;;;9.60;;
22026;SDS011;11177;50.966;10.070;2022-12-18T12:18:57;29.45;;;10.20;;
22026;SDS011;11177;50.966;10.070;2022-12-18T12:21:39;20.90;;;9.88;;
22026;SDS011;11177;50.966;10.070;2022-12-18T12:24:13;25.92;;;10.52;;
22026;SDS011;11177;50.966;10.070;2022-12-18T12:30:19;38.72;;;15.88;;
22026;SDS011;11177;50.966;10.070;2022-12-18T12:35:59;48.83;;;20.88;;
22026;SDS011;11177;50.966;10.070;2022-12-18T12:38:49;66.80;;;23.55;;
22026;SDS011;11177;50.966;10.070;2022-12-18T12:41:19;51.05;;;19.90;;
22026;SDS011;11177;50.966;10.070;2022-12-18T12:44:08;45.90;;;17.35;;
22026;SDS011;11177;50.966;10.070;2022-12-18T12:46:39;50.67;;;20.77;;
22026;SDS011;11177;50.966;10.070;2022-12-18T12:49:15;31.88;;;12.38;;
22026;SDS011;11177;50.966;10.070;2022-12-18T12:51:45;39.03;;;19.40;;
22026;SDS011;11177;50.966;10.070;2022-12-18T12:54:19;27.00;;;12.50;;
22026;SDS011;11177;50.966;10.070;2022-12-18T12:57:04;26.67;;;12.50;;
22026;SDS011;11177;50.966;10.070;2022-12-18T13:00:01;21.25;;;10.15;;
22026;SDS011;11177;50.966;10.070;2022-12-18T13:02:38;24.17;;;12.27;;
22026;SDS011;11177;50.966;10.070;2022-12-18T13:07:41;25.20;;;10.77;;
22026;SDS011;11177;50.966;10.070;2022-12-18T13:10:33;32.85;;;12.38;;
22026;SDS011;11177;50.966;10.070;2022-12-18T13:13:10;24.30;;;9.82;;
22026;SDS011;11177;50.966;10.070;2022-12-18T13:15:43;15.23;;;8.02;;
22026;SDS011;11177;50.966;10.070;2022-12-18T13:18:19;14.02;;;6.60;;
22026;SDS011;11177;50.966;10.070;2022-12-18T13:28:54;21.65;;;9.88;;
22026;SDS011;11177;50.966;10.070;2022-12-18T13:34:29;21.27;;;9.75;;
22026;SDS011;11177;50.966;10.070;2022-12-18T13:43:42;15.82;;;7.07;;
22026;SDS011;11177;50.966;10.070;2022-12-18T13:46:26;12.43;;;6.25;;
22026;SDS011;11177;50.966;10.070;2022-12-18T13:48:59;14.50;;;6.35;;
22026;SDS011;11177;50.966;10.070;2022-12-18T13:51:28;13.25;;;6.63;;
22026;SDS011;11177;50.966;10.070;2022-12-18T13:53:58;15.80;;;6.97;;
22026;SDS011;11177;50.966;10.070;2022-12-18T13:56:31;20.90;;;8.90;;
22026;SDS011;11177;50.966;10.070;2022-12-18T13:59:06;15.07;;;6.85;;
22026;SDS011;11177;50.966;10.070;2022-12-18T14:04:32;14.65;;;6.25;;
22026;SDS011;11177;50.966;10.070;2022-12-18T14:07:07;12.48;;;5.85;;
22026;SDS011;11177;50.966;10.070;2022-12-18T14:09:44;11.02;;;5.20;;
22026;SDS011;11177;50.966;10.070;2022-12-18T14:12:14;13.38;;;5.38;;
22026;SDS011;11177;50.966;10.070;2022-12-18T14:15:01;13.05;;;5.72;;
22026;SDS011;11177;50.966;10.070;2022-12-18T14:17:28;12.60;;;5.47;;
22026;SDS011;11177;50.966;10.070;2022-12-18T14:19:56;14.52;;;5.50;;
22026;SDS011;11177;50.966;10.070;2022-12-18T14:22:25;11.25;;;5.78;;
22026;SDS011;11177;50.966;10.070;2022-12-18T14:25:16;12.88;;;6.35;;
22026;SDS011;11177;50.966;10.070;2022-12-18T14:30:45;14.38;;;5.90;;
22026;SDS011;11177;50.966;10.070;2022-12-18T14:35:42;12.15;;;5.28;;
22026;SDS011;11177;50.966;10.070;2022-12-18T14:38:20;12.88;;;5.97;;
22026;SDS011;11177;50.966;10.070;2022-12-18T14:40:56;11.40;;;5.50;;
22026;SDS011;11177;50.966;10.070;2022-12-18T14:43:27;12.77;;;6.38;;
22026;SDS011;11177;50.966;10.070;2022-12-18T14:45:55;14.57;;;6.38;;
22026;SDS011;11177;50.966;10.070;2022-12-18T14:48:30;14.40;;;6.22;;
22026;SDS011;11177;50.966;10.070;2022-12-18T14:51:02;16.52;;;7.22;;
22026;SDS011;11177;50.966;10.070;2022-12-18T14:53:34;17.83;;;6.80;;
22026;SDS011;11177;50.966;10.070;2022-12-18T14:56:04;13.23;;;5.82;;
22026;SDS011;11177;50.966;10.070;2022-12-18T14:59:00;13.73;;;6.00;;
22026;SDS011;11177;50.966;10.070;2022-12-18T15:01:33;14.85;;;7.20;;
22026;SDS011;11177;50.966;10.070;2022-12-18T15:04:02;18.77;;;7.25;;
22026;SDS011;11177;50.966;10.070;2022-12-18T15:06:35;16.92;;;7.57;;
22026;SDS011;11177;50.966;10.070;2022-12-18T15:09:05;18.88;;;8.25;;
22026;SDS011;11177;50.966;10.070;2022-12-18T15:14:34;13.13;;;6.75;;
22026;SDS011;11177;50.966;10.070;2022-12-18T15:17:15;16.25;;;7.35;;
22026;SDS011;11177;50.966;10.070;2022-12-18T15:19:46;16.02;;;7.20;;
22026;SDS011;11177;50.966;10.070;2022-12-18T15:22:17;17.05;;;7.35;;
22026;SDS011;11177;50.966;10.070;2022-12-18T15:24:48;15.65;;;7.35;;
22026;SDS011;11177;50.966;10.070;2022-12-18T15:27:23;16.17;;;7.75;;
22026;SDS011;11177;50.966;10.070;2022-12-18T15:30:01;16.40;;;7.78;;
22026;SDS011;11177;50.966;10.070;2022-12-18T15:32:37;17.00;;;7.65;;
22026;SDS011;11177;50.966;10.070;2022-12-18T15:35:24;12.93;;;6.88;;
22026;SDS011;11177;50.966;10.070;2022-12-18T15:37:51;15.43;;;7.50;;
22026;SDS011;11177;50.966;10.070;2022-12-18T15:40:19;19.13;;;8.15;;
22026;SDS011;11177;50.966;10.070;2022-12-18T15:42:48;16.75;;;7.75;;
22026;SDS011;11177;50.966;10.070;2022-12-18T15:45:33;17.85;;;8.30;;
22026;SDS011;11177;50.966;10.070;2022-12-18T15:48:00;15.77;;;7.55;;
22026;SDS011;11177;50.966;10.070;2022-12-18T15:50:27;15.63;;;7.18;;
22026;SDS011;11177;50.966;10.070;2022-12-18T15:52:56;17.55;;;8.30;;
22026;SDS011;11177;50.966;10.070;2022-12-18T15:55:23;15.05;;;6.75;;
22026;SDS011;11177;50.966;10.070;2022-12-18T15:58:09;17.13;;;6.95;;
22026;SDS011;11177;50.966;10.070;2022-12-18T16:00:39;15.32;;;8.27;;
22026;SDS011;11177;50.966;10.070;2022-12-18T16:03:06;17.55;;;7.97;;
22026;SDS011;11177;50.966;10.070;2022-12-18T16:05:35;21.02;;;8.88;;
22026;SDS011;11177;50.966;10.070;2022-12-18T16:08:06;18.48;;;8.63;;
22026;SDS011;11177;50.966;10.070;2022-12-18T16:10:33;15.85;;;7.25;;
22026;SDS011;11177;50.966;10.070;2022-12-18T16:13:01;17.15;;;7.47;;
22026;SDS011;11177;50.966;10.070;2022-12-18T16:15:28;19.65;;;7.68;;